createdAt,value
2022-10-29T00:02:13.872Z,3.47
2022-10-29T00:04:40.727Z,3.40
2022-10-29T00:07:07.445Z,3.75
2022-10-29T00:09:34.171Z,3.63
2022-10-29T00:12:00.967Z,3.50
2022-10-29T00:14:27.739Z,3.63
2022-10-29T00:16:54.579Z,3.67
2022-10-29T00:19:21.405Z,3.58
2022-10-29T00:21:50.705Z,3.90
2022-10-29T00:24:17.542Z,3.63
2022-10-29T00:26:44.341Z,3.90
2022-10-29T00:29:11.087Z,3.72
2022-10-29T00:31:37.884Z,3.67
2022-10-29T00:34:04.798Z,3.60
2022-10-29T00:36:32.185Z,3.50
2022-10-29T00:38:59.134Z,3.30
2022-10-29T00:41:30.429Z,3.40
2022-10-29T00:44:36.031Z,3.58
2022-10-29T00:47:11.593Z,3.30
2022-10-29T00:49:40.761Z,3.40
2022-10-29T00:52:08.422Z,3.78
2022-10-29T00:54:38.502Z,3.58
2022-10-29T00:57:11.098Z,3.40
2022-10-29T00:59:37.956Z,3.40
2022-10-29T01:02:04.986Z,3.23
2022-10-29T01:04:35.817Z,3.80
2022-10-29T01:07:03.959Z,3.60
2022-10-29T01:09:30.664Z,3.60
2022-10-29T01:12:12.742Z,3.92
2022-10-29T01:15:02.394Z,3.73
2022-10-29T01:17:51.980Z,3.92
2022-10-29T01:20:32.863Z,3.60
2022-10-29T01:23:17.941Z,5.00
2022-10-29T01:25:47.371Z,3.75
2022-10-29T01:28:20.197Z,3.80
2022-10-29T01:31:14.180Z,3.80
2022-10-29T01:33:55.449Z,3.75
2022-10-29T01:36:41.338Z,3.88
2022-10-29T01:39:31.737Z,3.55
2022-10-29T01:42:13.457Z,3.80
2022-10-29T01:44:53.945Z,4.10
2022-10-29T01:47:24.937Z,3.72
2022-10-29T01:50:05.927Z,3.60
2022-10-29T01:52:35.350Z,4.03
2022-10-29T01:55:02.557Z,4.20
2022-10-29T01:57:35.721Z,3.85
2022-10-29T02:00:13.277Z,3.65
2022-10-29T02:02:51.866Z,4.15
2022-10-29T02:05:32.124Z,3.63
2022-10-29T02:08:19.878Z,3.57
2022-10-29T02:11:05.482Z,3.60
2022-10-29T02:13:37.338Z,3.50
2022-10-29T02:16:07.050Z,3.97
2022-10-29T02:18:44.950Z,3.50
2022-10-29T02:21:15.253Z,3.80
2022-10-29T02:23:42.002Z,4.00
2022-10-29T02:26:11.698Z,3.90
2022-10-29T02:28:38.541Z,4.32
2022-10-29T02:31:06.067Z,4.00
2022-10-29T02:33:32.872Z,4.00
2022-10-29T02:35:59.576Z,4.15
2022-10-29T02:38:26.447Z,3.95
2022-10-29T02:40:53.284Z,4.15
2022-10-29T02:46:10.513Z,4.10
2022-10-29T02:48:37.228Z,4.20
2022-10-29T02:51:04.044Z,4.25
2022-10-29T02:53:30.967Z,4.32
2022-10-29T02:55:57.708Z,4.32
2022-10-29T02:58:25.159Z,4.20
2022-10-29T03:00:52.667Z,4.10
2022-10-29T03:03:19.438Z,4.35
2022-10-29T03:05:48.970Z,4.32
2022-10-29T03:08:16.518Z,4.45
2022-10-29T03:10:43.521Z,4.00
2022-10-29T03:13:10.619Z,4.00
2022-10-29T03:15:37.703Z,4.18
2022-10-29T03:18:05.159Z,4.30
2022-10-29T03:20:31.871Z,3.80
2022-10-29T03:22:58.735Z,4.20
2022-10-29T03:25:25.646Z,4.25
2022-10-29T03:27:52.333Z,4.00
2022-10-29T03:30:19.456Z,4.45
2022-10-29T03:32:48.040Z,4.22
2022-10-29T03:35:15.891Z,4.67
2022-10-29T03:37:44.294Z,4.00
2022-10-29T03:40:11.257Z,4.10
2022-10-29T03:42:41.123Z,4.28
2022-10-29T03:45:09.594Z,4.53
2022-10-29T03:47:36.451Z,4.40
2022-10-29T03:50:04.132Z,4.43
2022-10-29T03:52:30.960Z,4.40
2022-10-29T03:54:57.698Z,4.25
2022-10-29T03:57:24.406Z,4.20
2022-10-29T03:59:52.645Z,4.60
2022-10-29T04:02:20.579Z,4.18
2022-10-29T04:04:47.344Z,5.05
2022-10-29T04:07:14.359Z,4.80
2022-10-29T04:09:41.101Z,4.43
2022-10-29T04:12:08.651Z,4.80
2022-10-29T04:14:35.461Z,4.50
2022-10-29T04:17:02.259Z,4.50
2022-10-29T04:19:28.962Z,4.28
2022-10-29T04:27:07.727Z,4.43
2022-10-29T04:28:36.535Z,3.85
2022-10-29T04:30:16.011Z,3.72
2022-10-29T04:32:42.831Z,5.20
2022-10-29T04:35:09.563Z,4.85
2022-10-29T04:37:36.316Z,4.83
2022-10-29T04:40:04.621Z,6.22
2022-10-29T04:42:36.758Z,6.22
2022-10-29T04:45:04.984Z,4.57
2022-10-29T04:47:31.663Z,4.38
2022-10-29T04:49:58.582Z,4.70
2022-10-29T04:52:25.970Z,4.72
2022-10-29T04:54:52.721Z,3.90
2022-10-29T04:57:19.468Z,4.10
2022-10-29T04:59:46.236Z,4.20
2022-10-29T05:02:12.929Z,4.43
2022-10-29T05:04:39.633Z,4.15
2022-10-29T05:07:06.540Z,4.68
2022-10-29T05:09:33.271Z,4.50
2022-10-29T05:12:00.013Z,4.50
2022-10-29T05:14:26.791Z,4.40
2022-10-29T05:16:53.572Z,4.60
2022-10-29T05:19:20.377Z,4.25
2022-10-29T05:21:47.098Z,4.53
2022-10-29T05:24:13.847Z,4.20
2022-10-29T05:26:40.600Z,4.43
2022-10-29T05:29:07.349Z,4.05
2022-10-29T05:31:34.077Z,4.10
2022-10-29T05:34:00.814Z,4.60
2022-10-29T05:36:27.636Z,4.55
2022-10-29T05:38:54.312Z,4.00
2022-10-29T05:41:21.078Z,4.10
2022-10-29T05:43:50.850Z,4.28
2022-10-29T05:46:17.759Z,4.35
2022-10-29T05:48:44.462Z,4.25
2022-10-29T05:51:11.285Z,4.57
2022-10-29T05:53:37.978Z,4.28
2022-10-29T05:56:04.950Z,4.32
2022-10-29T05:58:31.699Z,4.57
2022-10-29T06:00:58.398Z,4.82
2022-10-29T06:03:25.099Z,4.20
2022-10-29T06:05:52.119Z,4.25
2022-10-29T06:08:19.204Z,4.53
2022-10-29T06:10:45.928Z,4.53
2022-10-29T06:13:18.326Z,6.20
2022-10-29T06:15:49.832Z,4.23
2022-10-29T06:18:16.755Z,4.47
2022-10-29T06:20:43.694Z,4.00
2022-10-29T06:23:13.719Z,4.00
2022-10-29T06:25:40.575Z,4.10
2022-10-29T06:28:09.810Z,4.23
2022-10-29T06:30:37.149Z,4.10
2022-10-29T06:33:05.222Z,3.88
2022-10-29T06:35:32.856Z,4.13
2022-10-29T06:38:00.703Z,4.00
2022-10-29T06:40:28.100Z,4.17
2022-10-29T06:43:03.166Z,3.83
2022-10-29T06:45:30.901Z,4.00
2022-10-29T06:47:58.216Z,4.22
2022-10-29T06:50:25.579Z,4.07
2022-10-29T06:53:00.347Z,4.07
2022-10-29T06:55:28.170Z,4.40
2022-10-29T06:58:10.716Z,4.50
2022-10-29T07:00:37.668Z,4.80
2022-10-29T07:03:05.160Z,5.30
2022-10-29T07:05:33.075Z,4.40
2022-10-29T07:08:01.463Z,4.40
2022-10-29T07:10:32.992Z,4.57
2022-10-29T07:13:00.388Z,4.43
2022-10-29T07:15:30.627Z,4.47
2022-10-29T07:18:02.847Z,4.13
2022-10-29T07:20:32.141Z,4.00
2022-10-29T07:23:01.983Z,3.90
2022-10-29T07:25:32.872Z,3.80
2022-10-29T07:28:04.996Z,3.50
2022-10-29T07:30:32.561Z,4.30
2022-10-29T07:32:59.423Z,3.40
2022-10-29T07:35:26.241Z,3.75
2022-10-29T07:37:53.276Z,3.80
2022-10-29T07:40:21.342Z,3.67
2022-10-29T07:42:54.997Z,3.47
2022-10-29T07:45:22.325Z,3.60
2022-10-29T07:47:49.221Z,3.90
2022-10-29T07:50:16.077Z,3.50
2022-10-29T07:52:45.777Z,3.50
2022-10-29T07:55:12.504Z,3.30
2022-10-29T07:57:39.175Z,3.30
2022-10-29T08:00:06.454Z,3.38
2022-10-29T08:02:33.115Z,3.20
2022-10-29T08:04:59.810Z,5.75
2022-10-29T08:07:26.551Z,4.27
2022-10-29T08:09:53.280Z,3.15
2022-10-29T08:12:20.016Z,3.70
2022-10-29T08:14:46.832Z,3.58
2022-10-29T08:17:13.587Z,3.20
2022-10-29T08:19:40.333Z,2.93
2022-10-29T08:22:07.249Z,2.30
2022-10-29T08:24:33.927Z,3.53
2022-10-29T08:27:00.635Z,3.20
2022-10-29T08:29:27.365Z,2.80
2022-10-29T08:31:56.555Z,3.83
2022-10-29T08:34:23.281Z,2.00
2022-10-29T08:36:50.037Z,2.20
2022-10-29T08:39:16.687Z,3.75
2022-10-29T08:41:58.655Z,5.22
2022-10-29T08:44:37.497Z,2.50
2022-10-29T08:47:14.885Z,1.80
2022-10-29T08:50:08.096Z,2.17
2022-10-29T08:52:44.570Z,1.75
2022-10-29T08:55:33.999Z,3.33
2022-10-29T08:58:16.659Z,1.77
2022-10-29T09:00:44.051Z,1.63
2022-10-29T09:03:13.706Z,1.52
2022-10-29T09:06:10.648Z,2.20
2022-10-29T09:08:58.775Z,2.08
2022-10-29T09:12:04.486Z,1.50
2022-10-29T09:14:55.967Z,1.40
2022-10-29T09:17:36.427Z,1.60
2022-10-29T09:20:25.920Z,1.67
2022-10-29T09:23:21.111Z,1.70
2022-10-29T09:25:50.491Z,1.80
2022-10-29T09:28:38.851Z,1.80
2022-10-29T09:31:17.585Z,1.98
2022-10-29T09:33:49.422Z,3.38
2022-10-29T09:36:20.042Z,1.98
2022-10-29T09:39:10.644Z,1.73
2022-10-29T09:41:38.615Z,2.00
2022-10-29T09:44:28.374Z,2.03
2022-10-29T09:47:09.375Z,1.98
2022-10-29T09:50:05.436Z,1.77
2022-10-29T09:52:39.621Z,2.03
2022-10-29T09:55:11.586Z,1.80
2022-10-29T09:57:40.820Z,2.30
2022-10-29T10:00:17.938Z,2.00
2022-10-29T10:03:00.038Z,2.10
2022-10-29T10:05:29.923Z,2.13
2022-10-29T10:08:07.794Z,2.20
2022-10-29T10:10:39.470Z,3.25
2022-10-29T10:13:16.788Z,2.45
2022-10-29T10:15:51.872Z,1.90
2022-10-29T10:18:42.253Z,1.90
2022-10-29T10:21:17.841Z,1.55
2022-10-29T10:23:47.726Z,1.90
2022-10-29T10:26:28.002Z,1.80
2022-10-29T10:29:04.781Z,1.90
2022-10-29T10:31:31.561Z,2.03
2022-10-29T10:33:58.331Z,2.00
2022-10-29T10:36:27.563Z,1.77
2022-10-29T10:38:58.071Z,1.70
2022-10-29T10:41:30.770Z,2.42
2022-10-29T10:44:00.763Z,2.00
2022-10-29T10:46:35.703Z,2.20
2022-10-29T10:49:12.436Z,2.63
2022-10-29T10:51:44.371Z,1.70
2022-10-29T10:54:38.671Z,1.77
2022-10-29T10:57:20.974Z,1.87
2022-10-29T11:00:07.501Z,1.67
2022-10-29T11:02:53.070Z,1.65
2022-10-29T11:05:34.907Z,1.40
2022-10-29T11:08:12.795Z,2.97
2022-10-29T11:10:45.728Z,1.50
2022-10-29T11:13:25.084Z,1.50
2022-10-29T11:16:01.255Z,1.30
2022-10-29T11:18:36.650Z,1.88
2022-10-29T11:21:07.858Z,1.50
2022-10-29T11:23:54.937Z,1.60
2022-10-29T11:26:35.011Z,2.10
2022-10-29T11:29:39.249Z,1.70
2022-10-29T11:32:24.044Z,1.95
2022-10-29T11:35:17.843Z,2.83
2022-10-29T11:38:13.680Z,1.80
2022-10-29T11:40:53.675Z,2.50
2022-10-29T11:43:21.639Z,2.60
2022-10-29T11:45:54.348Z,1.70
2022-10-29T11:48:38.122Z,1.65
2022-10-29T11:51:28.637Z,1.70
2022-10-29T11:54:36.869Z,1.80
2022-10-29T11:57:14.403Z,2.00
2022-10-29T11:59:59.387Z,1.63
2022-10-29T12:03:05.094Z,1.92
2022-10-29T12:05:50.007Z,1.87
2022-10-29T12:08:35.110Z,1.50
2022-10-29T12:11:01.882Z,1.70
2022-10-29T12:13:53.466Z,1.75
2022-10-29T12:16:25.838Z,1.83
2022-10-29T12:19:21.245Z,1.50
2022-10-29T12:22:04.849Z,1.60
2022-10-29T12:24:40.528Z,2.28
2022-10-29T12:27:22.096Z,2.22
2022-10-29T12:29:48.816Z,1.38
2022-10-29T12:32:42.290Z,1.37
2022-10-29T12:35:22.995Z,1.90
2022-10-29T12:38:31.057Z,2.50
2022-10-29T12:41:33.698Z,1.60
2022-10-29T12:44:24.614Z,1.75
2022-10-29T12:47:10.107Z,1.90
2022-10-29T12:49:48.732Z,2.50
2022-10-29T12:52:21.044Z,1.70
2022-10-29T12:54:50.658Z,2.00
2022-10-29T12:57:17.333Z,1.60
2022-10-29T12:59:45.074Z,2.23
2022-10-29T13:02:19.080Z,2.30
2022-10-29T13:05:07.678Z,2.20
2022-10-29T13:07:34.681Z,2.25
2022-10-29T13:10:23.350Z,2.08
2022-10-29T13:12:55.527Z,1.90
2022-10-29T13:15:24.525Z,1.60
2022-10-29T13:17:53.850Z,2.50
2022-10-29T13:20:35.670Z,1.80
2022-10-29T13:23:05.364Z,1.80
2022-10-29T13:25:34.932Z,1.60
2022-10-29T13:28:21.543Z,1.70
2022-10-29T13:30:53.919Z,2.05
2022-10-29T13:33:20.564Z,1.60
2022-10-29T13:36:18.345Z,1.98
2022-10-29T13:39:05.146Z,2.00
2022-10-29T13:41:45.386Z,2.45
2022-10-29T13:44:20.646Z,2.10
2022-10-29T13:46:52.510Z,2.00
2022-10-29T13:49:24.548Z,2.00
2022-10-29T13:52:15.069Z,1.90
2022-10-29T13:54:50.501Z,1.88
2022-10-29T13:57:39.037Z,1.65
2022-10-29T14:00:08.149Z,2.80
2022-10-29T14:02:43.817Z,2.20
2022-10-29T14:05:38.154Z,2.20
2022-10-29T14:08:13.320Z,1.90
2022-10-29T14:10:40.048Z,2.40
2022-10-29T14:13:28.614Z,2.00
2022-10-29T14:16:07.658Z,5.30
2022-10-29T14:18:43.171Z,3.13
2022-10-29T14:21:18.559Z,2.72
2022-10-29T14:24:15.985Z,2.00
2022-10-29T14:26:44.978Z,2.20
2022-10-29T14:29:24.263Z,2.70
2022-10-29T14:32:14.580Z,4.00
2022-10-29T14:34:42.662Z,4.10
2022-10-29T14:37:22.005Z,4.03
2022-10-29T14:39:58.408Z,3.90
2022-10-29T14:42:34.649Z,4.03
2022-10-29T14:45:05.126Z,2.70
2022-10-29T14:47:35.526Z,2.80
2022-10-29T14:50:17.595Z,2.10
2022-10-29T14:52:53.732Z,2.05
2022-10-29T14:55:23.299Z,2.95
2022-10-29T14:58:00.753Z,3.13
2022-10-29T15:00:30.697Z,3.60
2022-10-29T15:02:58.489Z,2.92
2022-10-29T15:05:27.040Z,2.60
2022-10-29T15:08:09.217Z,2.55
2022-10-29T15:10:56.787Z,2.67
2022-10-29T15:13:31.484Z,2.22
2022-10-29T15:16:08.770Z,2.42
2022-10-29T15:18:37.048Z,2.13
2022-10-29T15:21:04.923Z,1.65
2022-10-29T15:23:36.185Z,2.20
2022-10-29T15:26:06.010Z,2.42
2022-10-29T15:28:46.861Z,1.90
2022-10-29T15:31:22.119Z,2.13
2022-10-29T15:33:55.214Z,2.20
2022-10-29T15:36:22.311Z,2.57
2022-10-29T15:38:52.416Z,2.58
2022-10-29T15:41:37.636Z,2.00
2022-10-29T15:44:27.229Z,2.00
2022-10-29T15:46:56.520Z,2.25
2022-10-29T15:49:25.130Z,1.80
2022-10-29T15:51:56.552Z,2.05
2022-10-29T15:54:24.424Z,2.00
2022-10-29T15:56:51.555Z,2.10
2022-10-29T15:59:22.811Z,2.65
2022-10-29T16:01:49.821Z,2.67
2022-10-29T16:04:16.621Z,3.08
2022-10-29T16:06:43.412Z,3.45
2022-10-29T16:09:18.057Z,3.72
2022-10-29T16:11:44.917Z,3.47
2022-10-29T16:14:11.768Z,3.57
2022-10-29T16:16:42.739Z,3.90
2022-10-29T16:19:09.678Z,4.00
2022-10-29T16:21:37.015Z,3.70
2022-10-29T16:24:04.175Z,3.35
2022-10-29T16:26:33.579Z,3.80
2022-10-29T16:29:00.576Z,3.10
2022-10-29T16:31:29.180Z,3.03
2022-10-29T16:34:03.043Z,2.90
2022-10-29T16:36:50.524Z,3.00
2022-10-29T16:39:17.489Z,2.70
2022-10-29T16:41:46.879Z,2.60
2022-10-29T16:44:13.726Z,2.70
2022-10-29T16:49:43.732Z,3.20
2022-10-29T16:52:15.128Z,2.90
2022-10-29T16:54:45.715Z,3.38
2022-10-29T16:57:15.031Z,3.22
2022-10-29T16:59:50.548Z,2.90
2022-10-29T17:02:17.220Z,3.47
2022-10-29T17:04:44.165Z,3.17
2022-10-29T17:07:10.976Z,3.00
2022-10-29T17:09:37.749Z,3.42
2022-10-29T17:12:04.834Z,3.60
2022-10-29T17:14:31.572Z,3.67
2022-10-29T17:16:58.495Z,3.80
2022-10-29T17:19:29.182Z,4.35
2022-10-29T17:21:59.211Z,3.92
2022-10-29T17:24:27.056Z,4.30
2022-10-29T17:26:54.283Z,4.05
2022-10-29T17:29:21.071Z,4.17
2022-10-29T17:31:47.981Z,3.97
2022-10-29T17:34:14.738Z,4.15
2022-10-29T17:36:45.667Z,3.95
2022-10-29T17:39:12.655Z,4.13
2022-10-29T17:41:39.354Z,3.77
2022-10-29T17:44:06.148Z,3.80
2022-10-29T17:46:33.651Z,3.70
2022-10-29T17:49:00.520Z,3.38
2022-10-29T17:51:27.308Z,3.10
2022-10-29T17:53:54.675Z,3.53
2022-10-29T17:56:21.560Z,3.08
2022-10-29T17:58:48.450Z,3.42
2022-10-29T18:01:15.771Z,3.13
2022-10-29T18:03:42.711Z,3.30
2022-10-29T18:06:12.445Z,3.03
2022-10-29T18:08:41.485Z,2.90
2022-10-29T18:11:17.931Z,3.05
2022-10-29T18:13:46.170Z,2.80
2022-10-29T18:16:18.322Z,2.92
2022-10-29T18:19:01.074Z,2.60
2022-10-29T18:21:30.006Z,2.80
2022-10-29T18:23:56.870Z,2.70
2022-10-29T18:26:23.599Z,2.42
2022-10-29T18:28:51.163Z,2.63
2022-10-29T18:31:20.660Z,2.60
2022-10-29T18:33:47.577Z,2.28
2022-10-29T18:36:15.771Z,2.75
2022-10-29T18:38:49.672Z,2.42
2022-10-29T18:41:16.408Z,2.30
2022-10-29T18:43:43.173Z,2.30
2022-10-29T18:46:10.808Z,2.47
2022-10-29T18:48:40.905Z,2.35
2022-10-29T18:51:16.945Z,2.67
2022-10-29T18:53:45.506Z,2.53
2022-10-29T18:56:17.743Z,2.47
2022-10-29T18:58:44.950Z,2.75
2022-10-29T19:01:17.452Z,2.60
2022-10-29T19:03:48.439Z,2.50
2022-10-29T19:06:15.160Z,2.65
2022-10-29T19:08:44.102Z,2.73
2022-10-29T19:11:14.291Z,2.78
2022-10-29T19:13:41.538Z,2.92
2022-10-29T19:16:12.166Z,2.67
2022-10-29T19:18:40.175Z,2.60
2022-10-29T19:21:09.639Z,2.70
2022-10-29T19:23:37.162Z,3.13
2022-10-29T19:26:12.609Z,2.85
2022-10-29T19:28:42.001Z,2.80
2022-10-29T19:31:18.306Z,2.42
2022-10-29T19:33:52.013Z,2.30
2022-10-29T19:36:19.420Z,2.00
2022-10-29T19:38:46.972Z,2.00
2022-10-29T19:41:15.364Z,2.90
2022-10-29T19:43:42.843Z,2.58
2022-10-29T19:46:11.814Z,2.30
2022-10-29T19:48:39.924Z,2.40
2022-10-29T19:51:08.166Z,2.53
2022-10-29T19:53:35.024Z,2.75
2022-10-29T19:56:01.798Z,2.40
2022-10-29T19:58:28.613Z,2.53
2022-10-29T20:01:02.985Z,2.50
2022-10-29T20:03:29.804Z,2.40
2022-10-29T20:05:56.537Z,2.40
2022-10-29T20:08:24.069Z,2.30
2022-10-29T20:10:55.011Z,2.40
2022-10-29T20:13:21.744Z,2.30
2022-10-29T20:15:48.747Z,2.47
2022-10-29T20:18:15.585Z,2.33
2022-10-29T20:20:43.007Z,2.47
2022-10-29T20:23:09.908Z,2.27
2022-10-29T20:25:36.783Z,2.20
2022-10-29T20:28:03.711Z,2.05
2022-10-29T20:30:31.193Z,2.40
2022-10-29T20:32:58.259Z,2.38
2022-10-29T20:35:25.238Z,2.30
2022-10-29T20:37:55.134Z,2.30
2022-10-29T20:40:22.185Z,2.80
2022-10-29T20:42:51.777Z,2.20
2022-10-29T20:45:19.013Z,2.50
2022-10-29T20:47:51.947Z,2.63
2022-10-29T20:50:18.859Z,2.22
2022-10-29T20:52:48.657Z,2.20
2022-10-29T20:55:15.917Z,2.30
2022-10-29T20:57:43.155Z,2.60
2022-10-29T21:00:13.675Z,2.13
2022-10-29T21:02:40.549Z,2.20
2022-10-29T21:05:07.849Z,2.45
2022-10-29T21:07:34.754Z,2.70
2022-10-29T21:10:01.669Z,2.20
2022-10-29T21:12:28.576Z,2.30
2022-10-29T21:14:55.393Z,2.30
2022-10-29T21:17:22.295Z,2.47
2022-10-29T21:19:49.547Z,2.50
2022-10-29T21:22:16.345Z,2.40
2022-10-29T21:24:45.551Z,2.40
2022-10-29T21:27:12.648Z,2.30
2022-10-29T21:29:39.505Z,2.45
2022-10-29T21:32:06.779Z,2.20
2022-10-29T21:34:34.374Z,2.35
2022-10-29T21:37:01.544Z,2.50
2022-10-29T21:39:28.718Z,2.13
2022-10-29T21:41:58.812Z,2.33
2022-10-29T21:44:25.963Z,2.22
2022-10-29T21:46:52.745Z,2.40
2022-10-29T21:49:19.943Z,2.43
2022-10-29T21:51:48.090Z,2.20
2022-10-29T21:54:14.876Z,2.80
2022-10-29T21:56:41.697Z,2.38
2022-10-29T21:59:08.608Z,2.22
2022-10-29T22:01:35.414Z,2.60
2022-10-29T22:04:02.483Z,2.60
2022-10-29T22:06:29.298Z,2.20
2022-10-29T22:08:58.017Z,2.30
2022-10-29T22:11:26.676Z,2.13
2022-10-29T22:13:54.508Z,2.53
2022-10-29T22:16:22.836Z,3.00
2022-10-29T22:18:50.073Z,3.38
2022-10-29T22:21:22.674Z,3.22
2022-10-29T22:23:56.071Z,2.92
2022-10-29T22:26:28.857Z,9.17
2022-10-29T22:28:56.196Z,9.20
2022-10-29T22:31:24.020Z,7.80
2022-10-29T22:33:51.219Z,7.25
2022-10-29T22:36:21.962Z,10.23
2022-10-29T22:38:56.805Z,8.00
2022-10-29T22:41:24.640Z,3.92
2022-10-29T22:43:52.101Z,3.17
2022-10-29T22:46:21.330Z,2.90
2022-10-29T22:48:48.648Z,2.75
2022-10-29T22:51:19.458Z,2.93
2022-10-29T22:53:46.291Z,8.48
2022-10-29T22:56:18.012Z,9.30
2022-10-29T22:58:46.159Z,8.18
2022-10-29T23:01:15.677Z,7.40
2022-10-29T23:03:43.698Z,8.27
2022-10-29T23:06:13.445Z,6.60
2022-10-29T23:08:40.606Z,6.88
2022-10-29T23:11:23.367Z,7.18
2022-10-29T23:13:53.404Z,8.00
2022-10-29T23:16:21.062Z,6.50
2022-10-29T23:18:56.006Z,6.80
2022-10-29T23:21:23.189Z,5.63
2022-10-29T23:23:50.300Z,3.00
2022-10-29T23:26:21.833Z,3.20
2022-10-29T23:28:49.450Z,3.00
2022-10-29T23:31:24.987Z,3.08
2022-10-29T23:33:54.046Z,3.20
2022-10-29T23:36:22.971Z,3.42
2022-10-29T23:39:01.415Z,3.60
2022-10-29T23:41:29.912Z,3.60
2022-10-29T23:43:57.564Z,3.65
2022-10-29T23:46:24.576Z,3.80
2022-10-29T23:48:51.904Z,3.47
2022-10-29T23:51:19.180Z,3.38
2022-10-29T23:53:46.198Z,3.27
2022-10-29T23:56:12.943Z,3.22
2022-10-29T23:58:39.699Z,3.40
